sensor_id;sensor_type;location;lat;lon;timestamp;temperature;humidity
9907;DHT22;4992;51.628;6.664;2024-02-16T00:02:17;12.90;99.90
9907;DHT22;4992;51.628;6.664;2024-02-16T00:04:43;12.90;99.90
9907;DHT22;4992;51.628;6.664;2024-02-16T00:07:09;12.90;99.90
9907;DHT22;4992;51.628;6.664;2024-02-16T00:09:35;12.90;99.90
9907;DHT22;4992;51.628;6.664;2024-02-16T00:12:00;12.90;99.90
9907;DHT22;4992;51.628;6.664;2024-02-16T00:14:26;13.00;99.90
9907;DHT22;4992;51.628;6.664;2024-02-16T00:16:52;12.90;99.90
9907;DHT22;4992;51.628;6.664;2024-02-16T00:19:17;12.90;99.90
9907;DHT22;4992;51.628;6.664;2024-02-16T00:21:43;13.00;99.90
9907;DHT22;4992;51.628;6.664;2024-02-16T00:24:09;13.00;99.90
9907;DHT22;4992;51.628;6.664;2024-02-16T00:26:34;13.00;99.90
9907;DHT22;4992;51.628;6.664;2024-02-16T00:29:00;13.00;99.90
9907;DHT22;4992;51.628;6.664;2024-02-16T00:31:25;12.90;99.90
9907;DHT22;4992;51.628;6.664;2024-02-16T00:33:51;12.90;99.90
9907;DHT22;4992;51.628;6.664;2024-02-16T00:36:17;12.90;99.90
9907;DHT22;4992;51.628;6.664;2024-02-16T00:38:42;12.90;99.90
9907;DHT22;4992;51.628;6.664;2024-02-16T00:41:08;12.90;99.90
9907;DHT22;4992;51.628;6.664;2024-02-16T00:43:33;12.80;99.90
9907;DHT22;4992;51.628;6.664;2024-02-16T00:45:59;12.80;99.90
9907;DHT22;4992;51.628;6.664;2024-02-16T00:48:24;12.80;99.90
9907;DHT22;4992;51.628;6.664;2024-02-16T00:50:50;12.80;99.90
9907;DHT22;4992;51.628;6.664;2024-02-16T00:53:15;12.80;99.90
9907;DHT22;4992;51.628;6.664;2024-02-16T00:55:41;12.70;99.90
9907;DHT22;4992;51.628;6.664;2024-02-16T00:58:07;12.70;99.90
9907;DHT22;4992;51.628;6.664;2024-02-16T01:00:32;12.70;99.90
9907;DHT22;4992;51.628;6.664;2024-02-16T01:02:58;12.70;99.90
9907;DHT22;4992;51.628;6.664;2024-02-16T01:05:24;12.70;99.90
9907;DHT22;4992;51.628;6.664;2024-02-16T01:07:49;12.70;99.90
9907;DHT22;4992;51.628;6.664;2024-02-16T01:10:15;12.60;99.90
9907;DHT22;4992;51.628;6.664;2024-02-16T01:12:40;12.60;99.90
9907;DHT22;4992;51.628;6.664;2024-02-16T01:15:06;12.60;99.90
9907;DHT22;4992;51.628;6.664;2024-02-16T01:17:32;12.60;99.90
9907;DHT22;4992;51.628;6.664;2024-02-16T01:19:58;12.60;99.90
9907;DHT22;4992;51.628;6.664;2024-02-16T01:22:24;12.70;99.90
9907;DHT22;4992;51.628;6.664;2024-02-16T01:24:49;12.70;99.90
9907;DHT22;4992;51.628;6.664;2024-02-16T01:27:16;12.70;99.90
9907;DHT22;4992;51.628;6.664;2024-02-16T01:29:42;12.80;99.90
9907;DHT22;4992;51.628;6.664;2024-02-16T01:32:08;12.70;99.90
9907;DHT22;4992;51.628;6.664;2024-02-16T01:34:33;12.80;99.90
9907;DHT22;4992;51.628;6.664;2024-02-16T01:36:59;12.80;99.90
9907;DHT22;4992;51.628;6.664;2024-02-16T01:39:25;12.80;99.90
9907;DHT22;4992;51.628;6.664;2024-02-16T01:41:50;12.80;99.90
9907;DHT22;4992;51.628;6.664;2024-02-16T01:44:16;12.80;99.90
9907;DHT22;4992;51.628;6.664;2024-02-16T01:46:42;12.80;99.90
9907;DHT22;4992;51.628;6.664;2024-02-16T01:49:09;12.80;99.90
9907;DHT22;4992;51.628;6.664;2024-02-16T01:51:35;12.80;99.90
9907;DHT22;4992;51.628;6.664;2024-02-16T01:54:01;12.80;99.90
9907;DHT22;4992;51.628;6.664;2024-02-16T01:56:28;12.80;99.90
9907;DHT22;4992;51.628;6.664;2024-02-16T01:58:53;12.80;99.90
9907;DHT22;4992;51.628;6.664;2024-02-16T02:01:19;12.80;99.90
9907;DHT22;4992;51.628;6.664;2024-02-16T02:03:44;12.80;99.90
9907;DHT22;4992;51.628;6.664;2024-02-16T02:06:10;12.80;99.90
9907;DHT22;4992;51.628;6.664;2024-02-16T02:08:35;12.80;99.90
9907;DHT22;4992;51.628;6.664;2024-02-16T02:11:01;12.70;99.90
9907;DHT22;4992;51.628;6.664;2024-02-16T02:13:27;12.70;99.90
9907;DHT22;4992;51.628;6.664;2024-02-16T02:15:54;12.80;99.90
9907;DHT22;4992;51.628;6.664;2024-02-16T02:18:20;12.80;99.90
9907;DHT22;4992;51.628;6.664;2024-02-16T02:20:45;12.80;99.90
9907;DHT22;4992;51.628;6.664;2024-02-16T02:23:11;12.80;99.90
9907;DHT22;4992;51.628;6.664;2024-02-16T02:25:36;12.80;99.90
9907;DHT22;4992;51.628;6.664;2024-02-16T02:28:02;12.80;99.90
9907;DHT22;4992;51.628;6.664;2024-02-16T02:30:28;12.80;99.90
9907;DHT22;4992;51.628;6.664;2024-02-16T02:32:54;12.70;99.90
9907;DHT22;4992;51.628;6.664;2024-02-16T02:35:19;12.70;99.90
9907;DHT22;4992;51.628;6.664;2024-02-16T02:37:45;12.70;99.90
9907;DHT22;4992;51.628;6.664;2024-02-16T02:40:11;12.60;99.90
9907;DHT22;4992;51.628;6.664;2024-02-16T02:42:37;12.70;99.90
9907;DHT22;4992;51.628;6.664;2024-02-16T02:45:03;12.60;99.90
9907;DHT22;4992;51.628;6.664;2024-02-16T02:47:29;12.60;99.90
9907;DHT22;4992;51.628;6.664;2024-02-16T02:49:54;12.60;99.90
9907;DHT22;4992;51.628;6.664;2024-02-16T02:52:21;12.70;99.90
9907;DHT22;4992;51.628;6.664;2024-02-16T02:54:47;12.60;99.90
9907;DHT22;4992;51.628;6.664;2024-02-16T02:57:13;12.60;99.90
9907;DHT22;4992;51.628;6.664;2024-02-16T02:59:38;12.60;99.90
9907;DHT22;4992;51.628;6.664;2024-02-16T03:02:04;12.60;99.90
9907;DHT22;4992;51.628;6.664;2024-02-16T03:04:29;12.60;99.90
9907;DHT22;4992;51.628;6.664;2024-02-16T03:06:55;12.50;99.90
9907;DHT22;4992;51.628;6.664;2024-02-16T03:09:21;12.60;99.90
9907;DHT22;4992;51.628;6.664;2024-02-16T03:11:48;12.60;99.90
9907;DHT22;4992;51.628;6.664;2024-02-16T03:14:13;12.70;99.90
9907;DHT22;4992;51.628;6.664;2024-02-16T03:16:39;12.70;99.90
9907;DHT22;4992;51.628;6.664;2024-02-16T03:19:06;12.70;99.90
9907;DHT22;4992;51.628;6.664;2024-02-16T03:21:34;12.70;99.90
9907;DHT22;4992;51.628;6.664;2024-02-16T03:24:04;12.70;99.90
9907;DHT22;4992;51.628;6.664;2024-02-16T03:26:29;12.70;99.90
9907;DHT22;4992;51.628;6.664;2024-02-16T03:28:55;12.70;99.90
9907;DHT22;4992;51.628;6.664;2024-02-16T03:31:23;12.70;99.90
9907;DHT22;4992;51.628;6.664;2024-02-16T03:33:50;12.80;99.90
9907;DHT22;4992;51.628;6.664;2024-02-16T03:36:17;12.80;99.90
9907;DHT22;4992;51.628;6.664;2024-02-16T03:38:44;12.80;99.90
9907;DHT22;4992;51.628;6.664;2024-02-16T03:41:14;12.80;99.90
9907;DHT22;4992;51.628;6.664;2024-02-16T03:43:41;12.80;99.90
9907;DHT22;4992;51.628;6.664;2024-02-16T03:46:07;12.80;99.90
9907;DHT22;4992;51.628;6.664;2024-02-16T03:48:33;12.80;99.90
9907;DHT22;4992;51.628;6.664;2024-02-16T03:50:59;12.80;99.90
9907;DHT22;4992;51.628;6.664;2024-02-16T03:53:25;12.80;99.90
9907;DHT22;4992;51.628;6.664;2024-02-16T03:55:51;12.80;99.90
9907;DHT22;4992;51.628;6.664;2024-02-16T03:58:16;12.80;99.90
9907;DHT22;4992;51.628;6.664;2024-02-16T04:00:42;12.80;99.90
9907;DHT22;4992;51.628;6.664;2024-02-16T04:03:08;12.80;99.90
9907;DHT22;4992;51.628;6.664;2024-02-16T04:05:35;12.80;99.90
9907;DHT22;4992;51.628;6.664;2024-02-16T04:08:01;12.80;99.90
9907;DHT22;4992;51.628;6.664;2024-02-16T04:10:29;12.80;99.90
9907;DHT22;4992;51.628;6.664;2024-02-16T04:12:54;12.80;99.90
9907;DHT22;4992;51.628;6.664;2024-02-16T04:15:20;12.80;99.90
9907;DHT22;4992;51.628;6.664;2024-02-16T04:17:45;12.80;99.90
9907;DHT22;4992;51.628;6.664;2024-02-16T04:20:11;12.70;99.90
9907;DHT22;4992;51.628;6.664;2024-02-16T04:22:37;12.70;99.90
9907;DHT22;4992;51.628;6.664;2024-02-16T04:25:04;12.70;99.90
9907;DHT22;4992;51.628;6.664;2024-02-16T04:27:30;12.60;99.90
9907;DHT22;4992;51.628;6.664;2024-02-16T04:29:55;12.60;99.90
9907;DHT22;4992;51.628;6.664;2024-02-16T04:32:21;12.60;99.90
9907;DHT22;4992;51.628;6.664;2024-02-16T04:34:46;12.60;99.90
9907;DHT22;4992;51.628;6.664;2024-02-16T04:37:13;12.60;99.90
9907;DHT22;4992;51.628;6.664;2024-02-16T04:39:40;12.60;99.90
9907;DHT22;4992;51.628;6.664;2024-02-16T04:42:05;12.60;99.90
9907;DHT22;4992;51.628;6.664;2024-02-16T04:44:31;12.60;99.90
9907;DHT22;4992;51.628;6.664;2024-02-16T04:46:56;12.60;99.90
9907;DHT22;4992;51.628;6.664;2024-02-16T04:49:22;12.60;99.90
9907;DHT22;4992;51.628;6.664;2024-02-16T04:51:47;12.60;99.90
9907;DHT22;4992;51.628;6.664;2024-02-16T04:54:13;12.60;99.90
9907;DHT22;4992;51.628;6.664;2024-02-16T04:56:39;12.60;99.90
9907;DHT22;4992;51.628;6.664;2024-02-16T04:59:05;12.60;99.90
9907;DHT22;4992;51.628;6.664;2024-02-16T05:01:30;12.60;99.90
9907;DHT22;4992;51.628;6.664;2024-02-16T05:03:58;12.60;99.90
9907;DHT22;4992;51.628;6.664;2024-02-16T05:06:25;12.60;99.90
9907;DHT22;4992;51.628;6.664;2024-02-16T05:08:50;12.60;99.90
9907;DHT22;4992;51.628;6.664;2024-02-16T05:11:16;12.60;99.90
9907;DHT22;4992;51.628;6.664;2024-02-16T05:13:41;12.60;99.90
9907;DHT22;4992;51.628;6.664;2024-02-16T05:16:11;12.60;99.90
9907;DHT22;4992;51.628;6.664;2024-02-16T05:18:37;12.50;99.90
9907;DHT22;4992;51.628;6.664;2024-02-16T05:21:03;12.50;99.90
9907;DHT22;4992;51.628;6.664;2024-02-16T05:23:29;12.50;99.90
9907;DHT22;4992;51.628;6.664;2024-02-16T05:25:54;12.50;99.90
9907;DHT22;4992;51.628;6.664;2024-02-16T05:28:20;12.50;99.90
9907;DHT22;4992;51.628;6.664;2024-02-16T05:30:45;12.50;99.90
9907;DHT22;4992;51.628;6.664;2024-02-16T05:33:11;12.40;99.90
9907;DHT22;4992;51.628;6.664;2024-02-16T05:35:37;12.30;99.90
9907;DHT22;4992;51.628;6.664;2024-02-16T05:38:06;12.30;99.90
9907;DHT22;4992;51.628;6.664;2024-02-16T05:40:57;12.20;99.90
9907;DHT22;4992;51.628;6.664;2024-02-16T05:43:23;12.20;99.90
9907;DHT22;4992;51.628;6.664;2024-02-16T05:45:49;12.20;99.90
9907;DHT22;4992;51.628;6.664;2024-02-16T05:48:15;12.20;99.90
9907;DHT22;4992;51.628;6.664;2024-02-16T05:50:40;12.20;99.90
9907;DHT22;4992;51.628;6.664;2024-02-16T05:53:06;12.10;99.90
9907;DHT22;4992;51.628;6.664;2024-02-16T05:55:32;12.10;99.90
9907;DHT22;4992;51.628;6.664;2024-02-16T05:57:58;12.10;99.90
9907;DHT22;4992;51.628;6.664;2024-02-16T06:00:23;12.10;99.90
9907;DHT22;4992;51.628;6.664;2024-02-16T06:02:49;12.10;99.90
9907;DHT22;4992;51.628;6.664;2024-02-16T06:05:14;12.20;99.90
9907;DHT22;4992;51.628;6.664;2024-02-16T06:07:40;12.20;99.90
9907;DHT22;4992;51.628;6.664;2024-02-16T06:10:06;12.20;99.90
9907;DHT22;4992;51.628;6.664;2024-02-16T06:12:39;12.20;99.90
9907;DHT22;4992;51.628;6.664;2024-02-16T06:15:05;12.20;99.90
9907;DHT22;4992;51.628;6.664;2024-02-16T06:17:31;12.20;99.90
9907;DHT22;4992;51.628;6.664;2024-02-16T06:19:56;12.30;99.90
9907;DHT22;4992;51.628;6.664;2024-02-16T06:22:23;12.30;99.90
9907;DHT22;4992;51.628;6.664;2024-02-16T06:24:49;12.40;99.90
9907;DHT22;4992;51.628;6.664;2024-02-16T06:27:14;12.40;99.90
9907;DHT22;4992;51.628;6.664;2024-02-16T06:29:41;12.50;99.90
9907;DHT22;4992;51.628;6.664;2024-02-16T06:32:07;12.40;99.90
9907;DHT22;4992;51.628;6.664;2024-02-16T06:34:32;12.40;99.90
9907;DHT22;4992;51.628;6.664;2024-02-16T06:36:59;12.40;99.90
9907;DHT22;4992;51.628;6.664;2024-02-16T06:39:25;12.40;99.90
9907;DHT22;4992;51.628;6.664;2024-02-16T06:41:50;12.50;99.90
9907;DHT22;4992;51.628;6.664;2024-02-16T06:44:16;12.40;99.90
9907;DHT22;4992;51.628;6.664;2024-02-16T06:46:42;12.50;99.90
9907;DHT22;4992;51.628;6.664;2024-02-16T06:49:09;12.50;99.90
9907;DHT22;4992;51.628;6.664;2024-02-16T06:51:36;12.50;99.90
9907;DHT22;4992;51.628;6.664;2024-02-16T06:54:02;12.50;99.90
9907;DHT22;4992;51.628;6.664;2024-02-16T06:56:29;12.60;99.90
9907;DHT22;4992;51.628;6.664;2024-02-16T06:58:54;12.70;99.90
9907;DHT22;4992;51.628;6.664;2024-02-16T07:01:20;12.70;99.90
9907;DHT22;4992;51.628;6.664;2024-02-16T07:03:45;12.70;99.90
9907;DHT22;4992;51.628;6.664;2024-02-16T07:06:12;12.70;99.90
9907;DHT22;4992;51.628;6.664;2024-02-16T07:08:40;12.70;99.90
9907;DHT22;4992;51.628;6.664;2024-02-16T07:11:05;12.80;99.90
9907;DHT22;4992;51.628;6.664;2024-02-16T07:13:34;12.80;99.90
9907;DHT22;4992;51.628;6.664;2024-02-16T07:16:00;12.80;99.90
9907;DHT22;4992;51.628;6.664;2024-02-16T07:18:26;12.80;99.90
9907;DHT22;4992;51.628;6.664;2024-02-16T07:20:51;12.80;99.90
9907;DHT22;4992;51.628;6.664;2024-02-16T07:23:17;12.80;99.90
9907;DHT22;4992;51.628;6.664;2024-02-16T07:25:43;12.80;99.90
9907;DHT22;4992;51.628;6.664;2024-02-16T07:28:08;12.80;99.90
9907;DHT22;4992;51.628;6.664;2024-02-16T07:30:36;12.80;99.90
9907;DHT22;4992;51.628;6.664;2024-02-16T07:33:05;12.80;99.90
9907;DHT22;4992;51.628;6.664;2024-02-16T07:35:35;12.80;99.90
9907;DHT22;4992;51.628;6.664;2024-02-16T07:38:04;12.90;99.90
9907;DHT22;4992;51.628;6.664;2024-02-16T07:40:29;12.90;99.90
9907;DHT22;4992;51.628;6.664;2024-02-16T07:42:56;13.00;99.90
9907;DHT22;4992;51.628;6.664;2024-02-16T07:45:22;13.00;99.90
9907;DHT22;4992;51.628;6.664;2024-02-16T07:47:47;13.10;99.90
9907;DHT22;4992;51.628;6.664;2024-02-16T07:50:13;13.20;99.90
9907;DHT22;4992;51.628;6.664;2024-02-16T07:52:39;13.20;99.90
9907;DHT22;4992;51.628;6.664;2024-02-16T07:55:06;13.20;99.90
9907;DHT22;4992;51.628;6.664;2024-02-16T07:57:32;13.30;99.90
9907;DHT22;4992;51.628;6.664;2024-02-16T07:59:57;13.30;99.90
9907;DHT22;4992;51.628;6.664;2024-02-16T08:02:23;13.40;99.90
9907;DHT22;4992;51.628;6.664;2024-02-16T08:04:49;13.40;99.90
9907;DHT22;4992;51.628;6.664;2024-02-16T08:07:15;13.40;99.90
9907;DHT22;4992;51.628;6.664;2024-02-16T08:09:46;13.50;99.90
9907;DHT22;4992;51.628;6.664;2024-02-16T08:12:15;13.50;99.90
9907;DHT22;4992;51.628;6.664;2024-02-16T08:14:42;13.50;99.90
9907;DHT22;4992;51.628;6.664;2024-02-16T08:17:08;13.50;99.90
9907;DHT22;4992;51.628;6.664;2024-02-16T08:19:35;13.50;99.90
9907;DHT22;4992;51.628;6.664;2024-02-16T08:22:05;13.50;99.90
9907;DHT22;4992;51.628;6.664;2024-02-16T08:24:35;13.60;99.90
9907;DHT22;4992;51.628;6.664;2024-02-16T08:27:01;13.60;99.90
9907;DHT22;4992;51.628;6.664;2024-02-16T08:29:27;13.70;99.90
9907;DHT22;4992;51.628;6.664;2024-02-16T08:31:53;13.70;99.90
9907;DHT22;4992;51.628;6.664;2024-02-16T08:34:19;13.70;99.90
9907;DHT22;4992;51.628;6.664;2024-02-16T08:36:48;13.80;99.90
9907;DHT22;4992;51.628;6.664;2024-02-16T08:39:15;13.80;99.90
9907;DHT22;4992;51.628;6.664;2024-02-16T08:41:41;13.90;99.90
9907;DHT22;4992;51.628;6.664;2024-02-16T08:44:07;13.90;99.90
9907;DHT22;4992;51.628;6.664;2024-02-16T08:46:36;13.90;99.90
9907;DHT22;4992;51.628;6.664;2024-02-16T08:49:02;14.00;99.90
9907;DHT22;4992;51.628;6.664;2024-02-16T08:51:28;14.00;99.90
9907;DHT22;4992;51.628;6.664;2024-02-16T08:53:54;14.00;99.90
9907;DHT22;4992;51.628;6.664;2024-02-16T08:56:20;14.10;99.90
9907;DHT22;4992;51.628;6.664;2024-02-16T08:58:45;14.10;99.90
9907;DHT22;4992;51.628;6.664;2024-02-16T09:01:11;14.10;99.90
9907;DHT22;4992;51.628;6.664;2024-02-16T09:03:37;14.10;99.90
9907;DHT22;4992;51.628;6.664;2024-02-16T09:06:04;14.20;99.90
9907;DHT22;4992;51.628;6.664;2024-02-16T09:08:30;14.20;99.90
9907;DHT22;4992;51.628;6.664;2024-02-16T09:11:01;14.20;99.90
9907;DHT22;4992;51.628;6.664;2024-02-16T09:13:33;14.30;99.90
9907;DHT22;4992;51.628;6.664;2024-02-16T09:16:00;14.30;99.90
9907;DHT22;4992;51.628;6.664;2024-02-16T09:18:25;14.30;99.90
9907;DHT22;4992;51.628;6.664;2024-02-16T09:20:51;14.30;99.90
9907;DHT22;4992;51.628;6.664;2024-02-16T09:23:16;14.30;99.90
9907;DHT22;4992;51.628;6.664;2024-02-16T09:25:42;14.30;99.90
9907;DHT22;4992;51.628;6.664;2024-02-16T09:28:09;14.30;99.90
9907;DHT22;4992;51.628;6.664;2024-02-16T09:30:34;14.30;99.90
9907;DHT22;4992;51.628;6.664;2024-02-16T09:32:59;14.40;99.90
9907;DHT22;4992;51.628;6.664;2024-02-16T09:35:25;14.50;99.90
9907;DHT22;4992;51.628;6.664;2024-02-16T09:37:50;14.50;99.90
9907;DHT22;4992;51.628;6.664;2024-02-16T09:40:16;14.60;99.90
9907;DHT22;4992;51.628;6.664;2024-02-16T09:42:48;14.70;99.90
9907;DHT22;4992;51.628;6.664;2024-02-16T09:45:15;14.70;99.90
9907;DHT22;4992;51.628;6.664;2024-02-16T09:47:43;14.80;99.90
9907;DHT22;4992;51.628;6.664;2024-02-16T09:50:12;14.80;99.90
9907;DHT22;4992;51.628;6.664;2024-02-16T09:52:38;14.80;99.90
9907;DHT22;4992;51.628;6.664;2024-02-16T09:55:05;14.80;99.90
9907;DHT22;4992;51.628;6.664;2024-02-16T09:57:32;14.90;99.90
9907;DHT22;4992;51.628;6.664;2024-02-16T09:59:57;14.90;99.90
9907;DHT22;4992;51.628;6.664;2024-02-16T10:02:24;15.00;99.90
9907;DHT22;4992;51.628;6.664;2024-02-16T10:04:50;15.00;99.90
9907;DHT22;4992;51.628;6.664;2024-02-16T10:07:15;15.00;99.90
9907;DHT22;4992;51.628;6.664;2024-02-16T10:09:41;14.90;99.90
9907;DHT22;4992;51.628;6.664;2024-02-16T10:12:07;14.90;99.90
9907;DHT22;4992;51.628;6.664;2024-02-16T10:14:33;14.90;99.90
9907;DHT22;4992;51.628;6.664;2024-02-16T10:17:03;14.80;99.90
9907;DHT22;4992;51.628;6.664;2024-02-16T10:19:30;14.80;99.90
9907;DHT22;4992;51.628;6.664;2024-02-16T10:22:11;14.80;99.90
9907;DHT22;4992;51.628;6.664;2024-02-16T10:24:37;14.80;99.90
9907;DHT22;4992;51.628;6.664;2024-02-16T10:27:14;14.90;99.90
9907;DHT22;4992;51.628;6.664;2024-02-16T10:29:43;14.90;99.90
9907;DHT22;4992;51.628;6.664;2024-02-16T10:32:11;14.90;99.90
9907;DHT22;4992;51.628;6.664;2024-02-16T10:34:37;15.00;99.90
9907;DHT22;4992;51.628;6.664;2024-02-16T10:37:05;15.00;99.90
9907;DHT22;4992;51.628;6.664;2024-02-16T10:39:32;15.00;99.90
9907;DHT22;4992;51.628;6.664;2024-02-16T10:41:58;15.00;99.90
9907;DHT22;4992;51.628;6.664;2024-02-16T10:44:27;15.00;99.90
9907;DHT22;4992;51.628;6.664;2024-02-16T10:46:54;15.00;99.90
9907;DHT22;4992;51.628;6.664;2024-02-16T10:49:23;15.00;99.90
9907;DHT22;4992;51.628;6.664;2024-02-16T10:51:52;14.90;99.90
9907;DHT22;4992;51.628;6.664;2024-02-16T10:54:23;14.90;99.90
9907;DHT22;4992;51.628;6.664;2024-02-16T10:56:53;14.90;99.90
9907;DHT22;4992;51.628;6.664;2024-02-16T10:59:19;14.90;99.90
9907;DHT22;4992;51.628;6.664;2024-02-16T11:01:44;14.90;99.90
9907;DHT22;4992;51.628;6.664;2024-02-16T11:04:18;14.90;99.90
9907;DHT22;4992;51.628;6.664;2024-02-16T11:06:54;14.90;99.90
9907;DHT22;4992;51.628;6.664;2024-02-16T11:09:35;14.90;99.90
9907;DHT22;4992;51.628;6.664;2024-02-16T11:12:02;14.90;99.90
9907;DHT22;4992;51.628;6.664;2024-02-16T11:14:35;14.80;99.90
9907;DHT22;4992;51.628;6.664;2024-02-16T11:17:02;14.80;99.90
9907;DHT22;4992;51.628;6.664;2024-02-16T11:19:32;14.80;99.90
9907;DHT22;4992;51.628;6.664;2024-02-16T11:21:58;14.80;99.90
9907;DHT22;4992;51.628;6.664;2024-02-16T11:24:31;14.80;99.90
9907;DHT22;4992;51.628;6.664;2024-02-16T11:26:57;14.70;99.90
9907;DHT22;4992;51.628;6.664;2024-02-16T11:29:25;14.70;99.90
9907;DHT22;4992;51.628;6.664;2024-02-16T11:31:50;14.70;99.90
9907;DHT22;4992;51.628;6.664;2024-02-16T11:34:25;14.70;99.90
9907;DHT22;4992;51.628;6.664;2024-02-16T11:36:55;14.60;99.90
9907;DHT22;4992;51.628;6.664;2024-02-16T11:39:22;14.60;99.90
9907;DHT22;4992;51.628;6.664;2024-02-16T11:41:48;14.50;99.90
9907;DHT22;4992;51.628;6.664;2024-02-16T11:44:14;14.40;99.90
9907;DHT22;4992;51.628;6.664;2024-02-16T11:46:42;14.30;99.90
9907;DHT22;4992;51.628;6.664;2024-02-16T11:49:08;14.10;99.90
9907;DHT22;4992;51.628;6.664;2024-02-16T11:51:35;13.90;99.90
9907;DHT22;4992;51.628;6.664;2024-02-16T11:54:01;13.80;99.90
9907;DHT22;4992;51.628;6.664;2024-02-16T11:56:26;13.70;99.90
9907;DHT22;4992;51.628;6.664;2024-02-16T11:58:53;13.70;99.90
9907;DHT22;4992;51.628;6.664;2024-02-16T12:01:19;13.60;99.90
9907;DHT22;4992;51.628;6.664;2024-02-16T12:03:44;13.60;99.90
9907;DHT22;4992;51.628;6.664;2024-02-16T12:06:22;13.60;99.90
9907;DHT22;4992;51.628;6.664;2024-02-16T12:08:49;13.50;99.90
9907;DHT22;4992;51.628;6.664;2024-02-16T12:11:16;13.60;99.90
9907;DHT22;4992;51.628;6.664;2024-02-16T12:13:41;13.50;99.90
9907;DHT22;4992;51.628;6.664;2024-02-16T12:16:07;13.50;99.90
9907;DHT22;4992;51.628;6.664;2024-02-16T12:18:33;13.50;99.90
9907;DHT22;4992;51.628;6.664;2024-02-16T12:21:05;13.50;99.90
9907;DHT22;4992;51.628;6.664;2024-02-16T12:23:35;13.50;99.90
9907;DHT22;4992;51.628;6.664;2024-02-16T12:26:02;13.60;99.90
9907;DHT22;4992;51.628;6.664;2024-02-16T12:28:31;13.60;99.90
9907;DHT22;4992;51.628;6.664;2024-02-16T12:31:01;13.60;99.90
9907;DHT22;4992;51.628;6.664;2024-02-16T12:33:27;13.70;99.90
9907;DHT22;4992;51.628;6.664;2024-02-16T12:35:53;13.70;99.90
9907;DHT22;4992;51.628;6.664;2024-02-16T12:38:19;13.70;99.90
9907;DHT22;4992;51.628;6.664;2024-02-16T12:40:54;13.70;99.90
9907;DHT22;4992;51.628;6.664;2024-02-16T12:43:19;13.70;99.90
9907;DHT22;4992;51.628;6.664;2024-02-16T12:45:45;13.70;99.90
9907;DHT22;4992;51.628;6.664;2024-02-16T12:48:10;13.70;99.90
9907;DHT22;4992;51.628;6.664;2024-02-16T12:50:38;13.70;99.90
9907;DHT22;4992;51.628;6.664;2024-02-16T12:53:04;13.70;99.90
9907;DHT22;4992;51.628;6.664;2024-02-16T12:55:30;13.70;99.90
9907;DHT22;4992;51.628;6.664;2024-02-16T12:57:56;13.70;99.90
9907;DHT22;4992;51.628;6.664;2024-02-16T13:00:22;13.70;99.90
9907;DHT22;4992;51.628;6.664;2024-02-16T13:02:47;13.70;99.90
9907;DHT22;4992;51.628;6.664;2024-02-16T13:05:13;13.70;99.90
9907;DHT22;4992;51.628;6.664;2024-02-16T13:07:39;13.70;99.90
9907;DHT22;4992;51.628;6.664;2024-02-16T13:10:07;13.70;99.90
9907;DHT22;4992;51.628;6.664;2024-02-16T13:12:33;13.70;99.90
9907;DHT22;4992;51.628;6.664;2024-02-16T13:14:58;13.70;99.90
9907;DHT22;4992;51.628;6.664;2024-02-16T13:17:24;13.70;99.90
9907;DHT22;4992;51.628;6.664;2024-02-16T13:19:51;13.60;99.90
9907;DHT22;4992;51.628;6.664;2024-02-16T13:22:18;13.50;99.90
9907;DHT22;4992;51.628;6.664;2024-02-16T13:24:43;13.50;99.90
9907;DHT22;4992;51.628;6.664;2024-02-16T13:27:09;13.40;99.90
9907;DHT22;4992;51.628;6.664;2024-02-16T13:29:35;13.40;99.90
9907;DHT22;4992;51.628;6.664;2024-02-16T13:32:00;13.50;99.90
9907;DHT22;4992;51.628;6.664;2024-02-16T13:34:26;13.40;99.90
9907;DHT22;4992;51.628;6.664;2024-02-16T13:36:53;13.40;99.90
9907;DHT22;4992;51.628;6.664;2024-02-16T13:39:18;13.30;99.90
9907;DHT22;4992;51.628;6.664;2024-02-16T13:41:45;13.20;99.90
9907;DHT22;4992;51.628;6.664;2024-02-16T13:44:12;13.10;99.90
9907;DHT22;4992;51.628;6.664;2024-02-16T13:46:38;13.10;99.90
9907;DHT22;4992;51.628;6.664;2024-02-16T13:49:03;13.00;99.90
9907;DHT22;4992;51.628;6.664;2024-02-16T13:51:29;13.00;99.90
9907;DHT22;4992;51.628;6.664;2024-02-16T13:53:54;12.90;99.90
9907;DHT22;4992;51.628;6.664;2024-02-16T13:56:20;12.90;99.90
9907;DHT22;4992;51.628;6.664;2024-02-16T13:58:45;12.90;99.90
9907;DHT22;4992;51.628;6.664;2024-02-16T14:01:12;12.90;99.90
9907;DHT22;4992;51.628;6.664;2024-02-16T14:03:39;12.90;99.90
9907;DHT22;4992;51.628;6.664;2024-02-16T14:06:06;12.90;99.90
9907;DHT22;4992;51.628;6.664;2024-02-16T14:08:32;12.90;99.90
9907;DHT22;4992;51.628;6.664;2024-02-16T14:10:57;12.90;99.90
9907;DHT22;4992;51.628;6.664;2024-02-16T14:13:23;12.90;99.90
9907;DHT22;4992;51.628;6.664;2024-02-16T14:15:50;12.90;99.90
9907;DHT22;4992;51.628;6.664;2024-02-16T14:18:16;12.90;99.90
9907;DHT22;4992;51.628;6.664;2024-02-16T14:20:41;13.00;99.90
9907;DHT22;4992;51.628;6.664;2024-02-16T14:23:07;13.00;99.90
9907;DHT22;4992;51.628;6.664;2024-02-16T14:25:36;13.00;99.90
9907;DHT22;4992;51.628;6.664;2024-02-16T14:28:03;13.00;99.90
9907;DHT22;4992;51.628;6.664;2024-02-16T14:30:29;13.00;99.90
9907;DHT22;4992;51.628;6.664;2024-02-16T14:32:54;13.00;99.90
9907;DHT22;4992;51.628;6.664;2024-02-16T14:35:20;13.10;99.90
9907;DHT22;4992;51.628;6.664;2024-02-16T14:37:47;13.10;99.90
9907;DHT22;4992;51.628;6.664;2024-02-16T14:40:13;13.10;99.90
9907;DHT22;4992;51.628;6.664;2024-02-16T14:42:39;13.10;99.90
9907;DHT22;4992;51.628;6.664;2024-02-16T14:45:05;13.00;99.90
9907;DHT22;4992;51.628;6.664;2024-02-16T14:47:35;13.00;99.90
9907;DHT22;4992;51.628;6.664;2024-02-16T14:50:01;12.90;99.90
9907;DHT22;4992;51.628;6.664;2024-02-16T14:52:29;12.90;99.90
9907;DHT22;4992;51.628;6.664;2024-02-16T14:54:54;12.90;99.90
9907;DHT22;4992;51.628;6.664;2024-02-16T14:57:20;12.90;99.90
9907;DHT22;4992;51.628;6.664;2024-02-16T14:59:50;12.90;99.90
9907;DHT22;4992;51.628;6.664;2024-02-16T15:02:17;12.90;99.90
9907;DHT22;4992;51.628;6.664;2024-02-16T15:04:45;12.90;99.90
9907;DHT22;4992;51.628;6.664;2024-02-16T15:07:10;12.90;99.90
9907;DHT22;4992;51.628;6.664;2024-02-16T15:09:36;12.90;99.90
9907;DHT22;4992;51.628;6.664;2024-02-16T15:12:01;12.80;99.90
9907;DHT22;4992;51.628;6.664;2024-02-16T15:14:27;12.80;99.90
9907;DHT22;4992;51.628;6.664;2024-02-16T15:16:52;12.80;99.90
9907;DHT22;4992;51.628;6.664;2024-02-16T15:19:18;12.80;99.90
9907;DHT22;4992;51.628;6.664;2024-02-16T15:21:44;12.70;99.90
9907;DHT22;4992;51.628;6.664;2024-02-16T15:24:09;12.70;99.90
9907;DHT22;4992;51.628;6.664;2024-02-16T15:26:35;12.70;99.90
9907;DHT22;4992;51.628;6.664;2024-02-16T15:29:01;12.60;99.90
9907;DHT22;4992;51.628;6.664;2024-02-16T15:31:27;12.60;99.90
9907;DHT22;4992;51.628;6.664;2024-02-16T15:33:52;12.60;99.90
9907;DHT22;4992;51.628;6.664;2024-02-16T15:36:18;12.60;99.90
9907;DHT22;4992;51.628;6.664;2024-02-16T15:38:43;12.60;99.90
9907;DHT22;4992;51.628;6.664;2024-02-16T15:41:09;12.60;99.90
9907;DHT22;4992;51.628;6.664;2024-02-16T15:43:34;12.60;99.90
9907;DHT22;4992;51.628;6.664;2024-02-16T15:46:00;12.60;99.90
9907;DHT22;4992;51.628;6.664;2024-02-16T15:48:25;12.60;99.90
9907;DHT22;4992;51.628;6.664;2024-02-16T15:50:51;12.60;99.90
9907;DHT22;4992;51.628;6.664;2024-02-16T15:53:17;12.60;99.90
9907;DHT22;4992;51.628;6.664;2024-02-16T15:55:43;12.50;99.90
9907;DHT22;4992;51.628;6.664;2024-02-16T15:58:09;12.50;99.90